Time;durP1;ratioP1;P1;durP2;ratioP2;P2;SDS_P1;SDS_P2;PMS_P1;PMS_P2;Temp;Humidity;BMP_temperature;BMP_pressure;BME280_temperature;BME280_humidity;BME280_pressure;Samples;Min_cycle;Max_cycle;Signal;HPM_P1;HPM_P2
2023/02/13 00:01:36;;;;;;;5.10;4.30;;;20.80;42.50;;;;;;5146635;27;20075;-48
2023/02/13 00:04:06;;;;;;;6.55;4.40;;;20.80;42.60;;;;;;5147306;27;20039;-51
2023/02/13 00:06:33;;;;;;;5.97;3.70;;;20.80;43.20;;;;;;5146975;27;20046;-52
2023/02/13 00:09:01;;;;;;;4.63;4.22;;;20.70;42.60;;;;;;5147115;27;20042;-56
2023/02/13 00:11:28;;;;;;;6.40;4.97;;;20.70;42.60;;;;;;5147114;27;20122;-52
2023/02/13 00:13:55;;;;;;;10.02;5.10;;;20.70;42.60;;;;;;5147082;27;20368;-54
2023/02/13 00:16:22;;;;;;;5.22;3.72;;;20.70;42.40;;;;;;5146692;27;20050;-51
2023/02/13 00:18:51;;;;;;;5.78;4.70;;;20.70;42.60;;;;;;5143323;27;20041;-55
2023/02/13 00:21:18;;;;;;;6.30;4.82;;;20.60;42.60;;;;;;5128886;27;20043;-55
2023/02/13 00:23:46;;;;;;;4.93;3.80;;;20.60;42.60;;;;;;5133123;27;20099;-55
2023/02/13 00:26:15;;;;;;;4.72;4.20;;;20.60;42.50;;;;;;5146933;27;20091;-56
2023/02/13 00:28:44;;;;;;;4.20;3.80;;;20.60;42.60;;;;;;5146928;27;20039;-53
2023/02/13 00:31:13;;;;;;;5.65;4.25;;;20.60;43.10;;;;;;5128152;27;20034;-54
2023/02/13 00:33:42;;;;;;;6.20;3.85;;;20.60;42.90;;;;;;5110755;27;20039;-54
2023/02/13 00:36:14;;;;;;;4.78;4.32;;;20.50;43.30;;;;;;5128404;27;20039;-53
2023/02/13 00:38:42;;;;;;;4.53;4.13;;;20.50;42.70;;;;;;5146448;27;20051;-53
2023/02/13 00:41:10;;;;;;;4.65;3.35;;;20.50;42.60;;;;;;5146753;27;20066;-54
2023/02/13 00:43:38;;;;;;;4.38;3.33;;;20.50;42.80;;;;;;5131537;27;20057;-51
2023/02/13 00:46:06;;;;;;;3.70;3.35;;;20.50;42.80;;;;;;5150823;27;20096;-52
2023/02/13 00:48:36;;;;;;;5.47;4.40;;;20.40;43.00;;;;;;5131972;27;20053;-51
2023/02/13 00:51:05;;;;;;;4.00;3.30;;;20.50;43.00;;;;;;5133349;27;20039;-51
2023/02/13 00:53:34;;;;;;;3.72;3.50;;;20.40;43.20;;;;;;5111405;27;20085;-55
2023/02/13 00:56:01;;;;;;;10.63;4.72;;;20.50;43.10;;;;;;5111987;27;20711;-54
2023/02/13 00:58:28;;;;;;;6.28;4.15;;;20.40;42.90;;;;;;5111047;27;20051;-55
2023/02/13 01:00:57;;;;;;;5.53;3.72;;;20.40;43.00;;;;;;5130221;27;20449;-55
2023/02/13 01:03:25;;;;;;;3.67;3.22;;;20.40;43.20;;;;;;5111536;27;20055;-50
2023/02/13 01:05:52;;;;;;;4.28;3.63;;;20.40;43.20;;;;;;5130098;27;20529;-51
2023/02/13 01:08:22;;;;;;;5.30;3.67;;;20.40;43.30;;;;;;5133451;27;20135;-54
2023/02/13 01:10:51;;;;;;;6.88;3.88;;;20.40;43.50;;;;;;5150549;27;20038;-54
2023/02/13 01:13:19;;;;;;;5.40;3.45;;;20.30;43.50;;;;;;5131280;27;20051;-52
2023/02/13 01:15:48;;;;;;;3.70;3.40;;;20.40;43.70;;;;;;5131928;27;20042;-54
2023/02/13 01:18:20;;;;;;;3.75;3.47;;;20.40;43.70;;;;;;5150966;27;20046;-54
2023/02/13 01:20:56;;;;;;;3.80;3.50;;;20.40;43.70;;;;;;5150461;27;20055;-54
2023/02/13 01:23:30;;;;;;;3.38;2.65;;;20.40;43.40;;;;;;5131420;27;20510;-52
2023/02/13 01:25:59;;;;;;;5.47;4.70;;;20.30;43.40;;;;;;5131905;27;20115;-51
2023/02/13 01:28:28;;;;;;;6.43;4.95;;;20.30;43.20;;;;;;5149865;27;20043;-55
2023/02/13 01:30:56;;;;;;;5.18;4.40;;;20.30;43.10;;;;;;5149093;27;20059;-51
2023/02/13 01:33:25;;;;;;;3.42;2.65;;;20.30;43.30;;;;;;5131470;27;20042;-53
2023/02/13 01:35:53;;;;;;;4.63;4.00;;;20.30;43.30;;;;;;5131379;27;20039;-53
2023/02/13 01:38:20;;;;;;;3.03;2.80;;;20.20;43.10;;;;;;5150100;27;20876;-50
2023/02/13 01:40:50;;;;;;;4.03;3.72;;;20.20;43.30;;;;;;5150296;27;20129;-53
2023/02/13 01:43:22;;;;;;;3.90;3.60;;;20.20;43.30;;;;;;5131145;27;20054;-52
2023/02/13 01:45:54;;;;;;;4.28;3.78;;;20.20;43.40;;;;;;5149712;27;20039;-50
2023/02/13 01:48:24;;;;;;;5.13;4.63;;;20.20;43.40;;;;;;5149755;27;20088;-48
2023/02/13 01:50:54;;;;;;;5.05;3.22;;;20.20;43.30;;;;;;5149663;27;20042;-54
2023/02/13 01:53:28;;;;;;;5.07;3.58;;;20.20;43.30;;;;;;5111725;27;20043;-52
2023/02/13 01:56:03;;;;;;;5.72;3.65;;;20.20;43.40;;;;;;5149593;27;20413;-54
2023/02/13 01:58:36;;;;;;;7.55;2.80;;;20.20;43.30;;;;;;5148885;27;20070;-54
2023/02/13 02:01:06;;;;;;;4.80;3.25;;;20.20;43.30;;;;;;5130804;27;20074;-53
2023/02/13 02:03:38;;;;;;;5.60;2.70;;;20.20;43.40;;;;;;5130681;27;20053;-49
2023/02/13 02:06:14;;;;;;;3.65;3.35;;;20.20;43.30;;;;;;5130996;27;20060;-52
2023/02/13 02:08:42;;;;;;;2.78;2.58;;;20.20;43.30;;;;;;5130717;27;20127;-53
2023/02/13 02:11:23;;;;;;;6.07;3.67;;;20.10;43.30;;;;;;5130042;27;20046;-53
2023/02/13 02:13:52;;;;;;;3.13;2.83;;;20.10;43.20;;;;;;5149196;27;20066;-53
2023/02/13 02:16:31;;;;;;;5.95;3.83;;;20.10;43.30;;;;;;5130561;27;20470;-53
2023/02/13 02:18:59;;;;;;;3.72;3.30;;;20.10;43.20;;;;;;5127182;27;20050;-52
2023/02/13 02:21:51;;;;;;;5.63;3.75;;;20.10;43.40;;;;;;5112351;27;20095;-52
2023/02/13 02:24:49;;;;;;;5.53;3.28;;;20.10;43.20;;;;;;5118464;27;20039;-53
2023/02/13 02:27:57;;;;;;;4.13;3.78;;;20.10;43.40;;;;;;5109303;27;20102;-53
2023/02/13 02:31:02;;;;;;;3.88;2.42;;;20.10;43.30;;;;;;5113583;27;20090;-52
2023/02/13 02:33:38;;;;;;;4.15;3.10;;;20.00;43.40;;;;;;5148878;27;20099;-54
2023/02/13 02:36:22;;;;;;;5.60;3.00;;;20.00;44.00;;;;;;5130518;27;20042;-50
2023/02/13 02:39:04;;;;;;;3.63;3.33;;;20.00;43.50;;;;;;5148689;27;20043;-55
2023/02/13 02:41:43;;;;;;;5.80;3.40;;;20.00;43.50;;;;;;5148366;27;20066;-52
2023/02/13 02:44:28;;;;;;;3.08;2.78;;;20.00;43.40;;;;;;5130030;27;20042;-53
2023/02/13 02:50:11;;;;;;;3.28;3.00;;;20.00;43.50;;;;;;5129818;27;20158;-53
2023/02/13 02:52:46;;;;;;;3.58;3.20;;;20.00;43.60;;;;;;5148407;27;20031;-52
2023/02/13 02:55:24;;;;;;;3.80;3.03;;;19.90;43.50;;;;;;5126361;27;20046;-54
2023/02/13 03:07:06;;;;;;;2.47;2.28;;;19.90;43.60;;;;;;5083732;28;20063;-55
2023/02/13 03:15:27;;;;;;;2.85;2.60;;;19.90;43.50;;;;;;5083894;28;20052;-54
2023/02/13 03:23:41;;;;;;;3.55;2.95;;;19.80;43.40;;;;;;5083504;28;20082;-51
2023/02/13 03:26:44;;;;;;;3.13;2.63;;;19.80;43.40;;;;;;5083630;28;20055;-55
2023/02/13 03:32:14;;;;;;;2.60;2.40;;;19.80;43.40;;;;;;5083644;28;20048;-53
2023/02/13 03:37:54;;;;;;;3.17;2.90;;;19.80;43.50;;;;;;5083048;28;20055;-53
2023/02/13 03:40:28;;;;;;;5.80;2.97;;;19.80;43.60;;;;;;5137234;27;20097;-51
2023/02/13 03:43:03;;;;;;;2.83;2.63;;;19.80;43.60;;;;;;5147664;27;20038;-52
2023/02/13 03:45:53;;;;;;;3.15;2.75;;;19.80;43.60;;;;;;5148049;27;20587;-49
2023/02/13 03:51:10;;;;;;;2.58;2.38;;;19.80;43.50;;;;;;5147489;27;20081;-55
2023/02/13 03:53:40;;;;;;;2.67;2.47;;;19.80;43.50;;;;;;5146945;27;20042;-50
2023/02/13 03:59:14;;;;;;;2.47;2.25;;;19.80;43.50;;;;;;5126426;27;20812;-51
2023/02/13 04:01:46;;;;;;;2.45;2.25;;;19.80;43.50;;;;;;5126618;27;20787;-51
2023/02/13 04:04:21;;;;;;;4.10;2.83;;;19.70;43.40;;;;;;5126754;27;20983;-48
2023/02/13 04:06:55;;;;;;;2.58;2.33;;;19.80;43.40;;;;;;5126379;27;20116;-49
2023/02/13 04:09:23;;;;;;;2.42;2.22;;;19.80;43.40;;;;;;5107828;27;20051;-52
2023/02/13 04:11:58;;;;;;;2.78;2.58;;;19.70;43.40;;;;;;5126393;27;20061;-50
2023/02/13 04:14:31;;;;;;;3.13;1.92;;;19.80;43.40;;;;;;5126176;27;20514;-49
2023/02/13 04:17:05;;;;;;;1.92;1.83;;;19.70;43.40;;;;;;5126053;27;20047;-49
2023/02/13 04:19:33;;;;;;;5.55;2.40;;;19.70;43.40;;;;;;5126612;27;20051;-52
2023/02/13 04:22:02;;;;;;;3.08;2.30;;;19.70;43.30;;;;;;5126050;27;20043;-51
2023/02/13 04:24:29;;;;;;;4.22;2.47;;;19.70;43.30;;;;;;5128122;27;20404;-51
2023/02/13 04:26:58;;;;;;;4.93;3.17;;;19.80;43.30;;;;;;5128260;27;20043;-54
2023/02/13 04:29:26;;;;;;;2.65;2.45;;;19.80;43.30;;;;;;5146634;27;20050;-52
2023/02/13 04:31:53;;;;;;;2.95;2.70;;;19.70;43.20;;;;;;5147023;27;20050;-54
2023/02/13 04:34:20;;;;;;;3.03;1.98;;;19.70;43.10;;;;;;5128427;27;20039;-50
2023/02/13 04:36:47;;;;;;;2.45;2.25;;;19.70;43.20;;;;;;5146351;27;20042;-53
2023/02/13 04:39:14;;;;;;;2.35;2.17;;;19.70;43.20;;;;;;5146527;27;20107;-53
2023/02/13 04:41:41;;;;;;;3.85;2.47;;;19.70;43.20;;;;;;5146409;27;20507;-53
2023/02/13 04:44:11;;;;;;;3.88;2.65;;;19.70;43.20;;;;;;5146109;27;20276;-53
2023/02/13 04:46:39;;;;;;;3.50;3.20;;;19.70;43.20;;;;;;5143886;27;20038;-52
2023/02/13 04:49:06;;;;;;;4.35;2.65;;;19.70;43.20;;;;;;5146592;27;20039;-52
2023/02/13 04:51:33;;;;;;;2.40;2.28;;;19.70;43.10;;;;;;5146077;27;20055;-51
2023/02/13 04:54:00;;;;;;;2.88;2.47;;;19.70;43.10;;;;;;5146110;27;20039;-50
2023/02/13 04:56:27;;;;;;;4.55;2.63;;;19.70;43.70;;;;;;5146413;27;20095;-55
2023/02/13 04:58:55;;;;;;;4.13;3.25;;;19.70;43.10;;;;;;5127472;27;20129;-53
2023/02/13 05:01:24;;;;;;;2.80;2.60;;;19.70;43.00;;;;;;5146314;27;20051;-54
2023/02/13 05:03:51;;;;;;;5.10;3.53;;;19.70;43.10;;;;;;5146574;27;20042;-52
2023/02/13 05:06:18;;;;;;;5.45;2.63;;;19.70;43.20;;;;;;5145856;27;20414;-51
2023/02/13 05:08:45;;;;;;;2.80;2.53;;;19.70;43.10;;;;;;5146323;27;20070;-51
2023/02/13 05:11:12;;;;;;;5.82;2.75;;;19.70;43.20;;;;;;5146018;27;20054;-51
2023/02/13 05:13:39;;;;;;;4.63;3.13;;;19.70;43.20;;;;;;5146103;27;20111;-51
2023/02/13 05:16:06;;;;;;;4.15;3.10;;;19.70;43.20;;;;;;5146199;27;20134;-52
2023/02/13 05:18:35;;;;;;;3.72;2.88;;;19.70;43.20;;;;;;5146153;27;20579;-54
2023/02/13 05:23:47;;;;;;;2.95;2.60;;;19.70;43.20;;;;;;5146124;27;20528;-50
2023/02/13 05:26:14;;;;;;;3.97;2.53;;;19.70;43.20;;;;;;5127133;27;20031;-52
2023/02/13 05:31:25;;;;;;;3.90;2.38;;;19.70;43.30;;;;;;5149990;27;20047;-53
2023/02/13 05:33:54;;;;;;;2.83;2.58;;;19.70;43.30;;;;;;5149059;27;20118;-52
2023/02/13 05:36:21;;;;;;;5.38;3.13;;;19.70;43.30;;;;;;5150059;27;20122;-52
2023/02/13 05:38:48;;;;;;;4.40;2.75;;;19.70;43.30;;;;;;5149796;27;20050;-51
2023/02/13 05:41:16;;;;;;;5.25;2.95;;;19.70;43.30;;;;;;5131002;27;20049;-51
2023/02/13 05:43:43;;;;;;;2.72;2.42;;;19.70;43.30;;;;;;5149677;27;20134;-48
2023/02/13 05:46:10;;;;;;;4.75;2.70;;;19.70;43.90;;;;;;5149658;27;20069;-52
2023/02/13 05:48:38;;;;;;;2.67;2.47;;;19.70;43.30;;;;;;5148456;27;20034;-51
2023/02/13 05:51:08;;;;;;;2.85;2.22;;;19.70;43.30;;;;;;5149571;27;20058;-51
2023/02/13 05:53:35;;;;;;;2.88;2.67;;;19.70;43.30;;;;;;5143724;27;20043;-50
2023/02/13 05:56:04;;;;;;;2.80;2.58;;;19.70;43.30;;;;;;5128829;27;20031;-54
2023/02/13 05:58:32;;;;;;;3.17;2.70;;;19.80;43.30;;;;;;5128688;27;20039;-52
2023/02/13 06:01:00;;;;;;;2.22;2.05;;;19.70;43.20;;;;;;5142350;27;20117;-52
2023/02/13 06:03:29;;;;;;;3.53;3.22;;;19.70;43.30;;;;;;5149071;27;20441;-52
2023/02/13 06:05:56;;;;;;;3.22;2.95;;;19.70;43.20;;;;;;5149371;27;20043;-53
2023/02/13 06:08:26;;;;;;;2.45;2.33;;;19.70;43.20;;;;;;5149123;27;20057;-51
2023/02/13 06:10:53;;;;;;;4.03;3.08;;;19.70;43.20;;;;;;5149365;27;20051;-48
2023/02/13 06:13:21;;;;;;;3.63;3.33;;;19.70;43.20;;;;;;5148862;27;20084;-51
2023/02/13 06:15:49;;;;;;;3.00;1.98;;;19.70;43.10;;;;;;5149054;27;20042;-53
2023/02/13 06:18:17;;;;;;;4.63;3.28;;;19.70;43.20;;;;;;5148889;27;20060;-53
2023/02/13 06:20:44;;;;;;;4.88;2.80;;;19.70;43.20;;;;;;5148982;27;20039;-51
2023/02/13 06:23:11;;;;;;;2.58;2.38;;;19.70;43.20;;;;;;5148852;27;20050;-52
2023/02/13 06:25:40;;;;;;;5.93;2.92;;;19.70;43.10;;;;;;5148575;27;20145;-53
2023/02/13 06:28:07;;;;;;;2.75;2.22;;;19.70;43.10;;;;;;5148435;27;20068;-51
2023/02/13 06:30:35;;;;;;;7.47;4.47;;;19.70;43.10;;;;;;5148312;27;20046;-58
2023/02/13 06:33:02;;;;;;;5.70;2.50;;;19.70;42.90;;;;;;5148439;27;20039;-63
2023/02/13 06:35:29;;;;;;;4.70;3.15;;;19.70;43.50;;;;;;5130209;27;20050;-60
2023/02/13 06:37:57;;;;;;;7.15;3.10;;;19.60;43.60;;;;;;5148606;27;20129;-63
2023/02/13 06:43:01;;;;;;;13.02;7.28;;;19.50;43.40;;;;;;5156796;27;20396;-63
2023/02/13 06:45:28;;;;;;;6.22;4.63;;;19.60;43.60;;;;;;5120426;27;20035;-64
2023/02/13 06:47:56;;;;;;;7.60;5.70;;;19.70;43.30;;;;;;5128500;27;20051;-63
2023/02/13 06:50:23;;;;;;;6.68;4.85;;;19.80;43.10;;;;;;5129570;27;20043;-63
2023/02/13 06:52:51;;;;;;;6.15;5.55;;;20.00;43.00;;;;;;5126675;27;20138;-66
2023/02/13 06:55:19;;;;;;;4.57;4.15;;;20.10;42.80;;;;;;5124039;27;20807;-63
2023/02/13 06:57:47;;;;;;;5.38;4.85;;;20.20;42.70;;;;;;5126464;27;20059;-63
2023/02/13 07:00:18;;;;;;;7.05;3.95;;;20.40;42.40;;;;;;5127010;27;20461;-61
2023/02/13 07:02:47;;;;;;;8.23;4.65;;;20.50;42.30;;;;;;5125451;27;20100;-63
2023/02/13 07:05:14;;;;;;;4.55;4.13;;;20.70;42.10;;;;;;5124671;27;20042;-65
2023/02/13 07:07:42;;;;;;;4.50;3.75;;;20.70;42.00;;;;;;5109430;27;20100;-62
2023/02/13 07:10:12;;;;;;;6.60;4.90;;;20.90;41.90;;;;;;5128967;27;20122;-63
2023/02/13 07:12:39;;;;;;;5.30;3.67;;;21.00;41.80;;;;;;5128061;27;20038;-62
2023/02/13 07:15:08;;;;;;;4.85;4.35;;;21.10;41.70;;;;;;5125468;27;20427;-65
2023/02/13 07:17:37;;;;;;;5.70;4.30;;;21.30;41.60;;;;;;5130976;27;20051;-63
2023/02/13 07:20:05;;;;;;;4.13;3.80;;;21.40;41.40;;;;;;5124955;27;20100;-64
2023/02/13 07:22:33;;;;;;;4.95;4.45;;;21.50;41.40;;;;;;5131168;27;20050;-62
2023/02/13 07:25:00;;;;;;;5.80;5.07;;;21.60;41.20;;;;;;5129772;27;20039;-63
2023/02/13 07:27:29;;;;;;;4.35;3.70;;;21.70;41.10;;;;;;5125025;27;20043;-63
2023/02/13 07:29:56;;;;;;;7.13;5.60;;;21.80;41.10;;;;;;5122130;27;20042;-60
2023/02/13 07:32:23;;;;;;;5.25;3.90;;;21.90;41.00;;;;;;5123407;27;20035;-63
2023/02/13 07:34:52;;;;;;;3.92;3.50;;;22.00;40.90;;;;;;5126539;27;20070;-61
2023/02/13 07:37:19;;;;;;;5.00;3.80;;;22.10;40.70;;;;;;5128275;27;20122;-60
2023/02/13 07:39:46;;;;;;;4.97;4.57;;;22.20;40.80;;;;;;5132319;27;20047;-60
2023/02/13 07:42:13;;;;;;;4.80;4.38;;;22.30;40.60;;;;;;5124803;27;20426;-62
2023/02/13 07:44:42;;;;;;;3.17;2.97;;;22.40;40.50;;;;;;5120387;27;20042;-60
2023/02/13 07:47:10;;;;;;;4.15;3.65;;;22.50;40.50;;;;;;5110131;27;20043;-62
2023/02/13 07:49:37;;;;;;;5.40;4.90;;;22.60;40.50;;;;;;5128540;27;20143;-66
2023/02/13 07:52:06;;;;;;;4.32;3.90;;;22.70;40.50;;;;;;5132817;27;20069;-65
2023/02/13 07:54:33;;;;;;;9.30;5.03;;;22.80;40.30;;;;;;5112207;27;20047;-61
2023/02/13 07:57:00;;;;;;;4.95;4.28;;;22.80;40.20;;;;;;5115281;27;20531;-64
2023/02/13 07:59:29;;;;;;;5.43;3.88;;;22.90;40.20;;;;;;5109165;27;20119;-61
2023/02/13 08:01:56;;;;;;;4.57;3.78;;;23.00;40.10;;;;;;5100775;28;20040;-63
2023/02/13 08:04:23;;;;;;;5.65;4.32;;;23.00;39.90;;;;;;5110625;27;20853;-63
2023/02/13 08:06:51;;;;;;;4.75;4.35;;;23.10;39.90;;;;;;5109622;27;20126;-61
2023/02/13 08:12:09;;;;;;;4.28;3.88;;;23.30;39.80;;;;;;5108844;27;20048;-57
2023/02/13 08:14:36;;;;;;;4.78;4.20;;;23.30;40.00;;;;;;5112381;27;20035;-61
2023/02/13 08:17:03;;;;;;;8.60;4.70;;;23.40;39.90;;;;;;5110405;27;20043;-59
2023/02/13 08:19:30;;;;;;;5.03;4.63;;;23.60;39.60;;;;;;5113545;27;20659;-63
2023/02/13 08:21:57;;;;;;;4.88;4.38;;;23.70;39.50;;;;;;5107928;27;20054;-59
2023/02/13 08:24:26;;;;;;;5.07;4.20;;;23.70;39.50;;;;;;5103727;27;20047;-62
2023/02/13 08:26:52;;;;;;;4.45;3.65;;;23.80;39.60;;;;;;5112265;27;20040;-58
2023/02/13 08:29:19;;;;;;;4.82;4.43;;;23.90;39.60;;;;;;5107904;27;20047;-58
2023/02/13 08:31:47;;;;;;;3.95;3.05;;;24.00;39.60;;;;;;5111663;27;20067;-59
2023/02/13 08:34:14;;;;;;;5.15;3.78;;;24.10;40.00;;;;;;5108573;27;20038;-54
2023/02/13 08:36:41;;;;;;;4.78;4.38;;;24.20;39.60;;;;;;5108958;27;20584;-59
2023/02/13 08:39:10;;;;;;;4.30;3.90;;;24.30;39.30;;;;;;5115053;27;20039;-56
2023/02/13 08:41:39;;;;;;;4.43;4.03;;;24.30;39.10;;;;;;5108332;27;20607;-59
2023/02/13 08:44:06;;;;;;;4.38;3.70;;;24.40;39.00;;;;;;5119603;27;20816;-57
2023/02/13 08:46:34;;;;;;;5.07;4.30;;;24.50;38.90;;;;;;5110969;27;20515;-60
2023/02/13 08:49:01;;;;;;;4.45;4.10;;;24.60;38.80;;;;;;5117796;27;20191;-58
2023/02/13 08:51:30;;;;;;;5.20;4.57;;;24.60;38.70;;;;;;5092316;28;20051;-62
2023/02/13 08:53:58;;;;;;;6.15;5.65;;;24.70;38.60;;;;;;5114979;27;20043;-58
2023/02/13 08:56:25;;;;;;;4.53;3.90;;;24.80;38.60;;;;;;5110048;27;20039;-63
2023/02/13 08:58:54;;;;;;;5.43;5.00;;;24.80;38.50;;;;;;5116366;27;20051;-59
2023/02/13 09:01:23;;;;;;;5.65;5.00;;;24.90;38.50;;;;;;5109193;27;20512;-62
2023/02/13 09:03:51;;;;;;;3.85;3.53;;;24.90;38.40;;;;;;5109106;27;20039;-60
2023/02/13 09:06:18;;;;;;;5.25;4.80;;;24.90;38.30;;;;;;5108405;27;20035;-56
2023/02/13 09:08:46;;;;;;;5.40;5.00;;;25.00;38.90;;;;;;5109780;27;20062;-58
2023/02/13 09:11:13;;;;;;;4.47;4.07;;;25.00;38.10;;;;;;5109363;27;20044;-55
2023/02/13 09:13:40;;;;;;;4.70;4.07;;;25.10;38.10;;;;;;5111722;27;20446;-56
2023/02/13 09:16:10;;;;;;;7.25;5.03;;;25.20;38.10;;;;;;5111616;27;20040;-56
2023/02/13 09:18:37;;;;;;;7.25;4.22;;;25.20;38.00;;;;;;5113242;27;20122;-54
2023/02/13 09:21:06;;;;;;;6.13;4.50;;;25.20;37.90;;;;;;5116528;27;20035;-59
2023/02/13 09:23:35;;;;;;;4.78;3.33;;;25.30;37.80;;;;;;5111662;27;20131;-56
2023/02/13 09:26:03;;;;;;;5.07;4.57;;;25.30;37.90;;;;;;5109460;27;20039;-57
2023/02/13 09:28:31;;;;;;;5.07;4.18;;;25.30;37.70;;;;;;5110437;27;20042;-56
2023/02/13 09:30:59;;;;;;;10.82;5.03;;;25.40;37.60;;;;;;5107019;27;20032;-56
2023/02/13 09:33:27;;;;;;;5.20;4.72;;;25.30;37.20;;;;;;5109088;27;20074;-53
2023/02/13 09:35:54;;;;;;;7.00;5.03;;;25.30;36.80;;;;;;5114300;27;20040;-57
2023/02/13 09:38:21;;;;;;;6.13;4.93;;;25.30;36.80;;;;;;5110387;27;20471;-56
2023/02/13 09:40:52;;;;;;;7.53;6.13;;;25.20;36.70;;;;;;5108423;27;20043;-57
2023/02/13 09:43:28;;;;;;;7.72;5.63;;;25.10;36.40;;;;;;5104649;27;20063;-55
2023/02/13 09:45:59;;;;;;;6.32;5.70;;;25.10;36.50;;;;;;5101386;27;20524;-57
2023/02/13 09:48:31;;;;;;;6.55;5.95;;;25.00;36.50;;;;;;5107918;27;20344;-53
2023/02/13 09:50:59;;;;;;;7.22;6.07;;;24.90;36.50;;;;;;5114633;27;20130;-56
2023/02/13 09:53:28;;;;;;;6.63;6.03;;;24.80;36.40;;;;;;5112287;27;20063;-55
2023/02/13 09:56:08;;;;;;;6.78;6.20;;;24.80;36.50;;;;;;5112588;27;20411;-52
2023/02/13 09:58:44;;;;;;;6.82;5.35;;;24.70;36.50;;;;;;5109628;27;20062;-58
2023/02/13 10:01:20;;;;;;;7.97;6.85;;;24.60;36.50;;;;;;5112380;27;20067;-60
2023/02/13 10:04:21;;;;;;;7.03;6.18;;;24.60;36.60;;;;;;5117453;27;20043;-62
2023/02/13 10:06:57;;;;;;;6.57;5.97;;;24.50;36.90;;;;;;5111573;27;20319;-68
2023/02/13 10:09:33;;;;;;;6.35;5.75;;;24.40;37.00;;;;;;5117539;27;20053;-66
2023/02/13 10:12:35;;;;;;;5.95;5.45;;;24.30;37.00;;;;;;5102780;28;20057;-67
2023/02/13 10:15:42;;;;;;;6.75;6.15;;;24.20;37.10;;;;;;5052743;28;20459;-63
2023/02/13 10:18:15;;;;;;;5.75;5.13;;;24.20;37.60;;;;;;5026465;28;20033;-63
2023/02/13 10:20:47;;;;;;;6.80;6.00;;;24.10;37.30;;;;;;5039516;28;20525;-62
2023/02/13 10:23:24;;;;;;;7.78;6.97;;;24.10;37.40;;;;;;5024094;28;20046;-62
2023/02/13 10:25:57;;;;;;;7.43;5.30;;;24.00;37.20;;;;;;5015381;28;20046;-65
2023/02/13 10:28:33;;;;;;;6.57;5.97;;;24.00;37.40;;;;;;5018820;28;20048;-64
2023/02/13 10:31:05;;;;;;;7.53;5.78;;;24.00;37.40;;;;;;5015850;28;20586;-65
2023/02/13 10:33:38;;;;;;;6.68;5.78;;;23.90;37.50;;;;;;5019794;28;20596;-64
2023/02/13 10:36:15;;;;;;;7.30;6.32;;;23.90;37.50;;;;;;5018764;28;20077;-62
2023/02/13 10:38:46;;;;;;;6.28;5.78;;;23.80;37.70;;;;;;5018182;28;20067;-67
2023/02/13 10:41:28;;;;;;;5.50;5.07;;;23.80;37.70;;;;;;5037199;28;20992;-62
2023/02/13 10:44:12;;;;;;;6.75;6.15;;;23.80;37.70;;;;;;5120170;27;20051;-63
2023/02/13 10:46:51;;;;;;;6.30;5.47;;;23.80;37.60;;;;;;4996519;28;20084;-59
2023/02/13 10:49:47;;;;;;;6.97;6.32;;;23.80;37.60;;;;;;5066207;28;20040;-61
2023/02/13 10:52:26;;;;;;;6.57;5.97;;;23.70;37.60;;;;;;5073064;28;20405;-61
2023/02/13 10:55:05;;;;;;;6.82;5.85;;;23.60;37.70;;;;;;5016741;28;20054;-70
2023/02/13 10:57:52;;;;;;;7.78;6.90;;;23.60;37.70;;;;;;5040374;28;20127;-70
2023/02/13 11:00:26;;;;;;;7.00;6.38;;;23.60;38.30;;;;;;5120947;27;20421;-67
2023/02/13 11:02:56;;;;;;;11.48;7.05;;;23.60;37.50;;;;;;5120698;28;20666;-72
2023/02/13 11:05:26;;;;;;;8.20;6.47;;;23.60;38.10;;;;;;5121210;27;20043;-67
2023/02/13 11:07:53;;;;;;;6.65;6.05;;;23.60;37.40;;;;;;5120506;27;20040;-68
2023/02/13 11:10:22;;;;;;;8.20;6.38;;;23.60;37.50;;;;;;5121428;27;20043;-68
2023/02/13 11:12:50;;;;;;;8.50;6.65;;;23.70;37.40;;;;;;5067177;27;20132;-66
2023/02/13 11:15:24;;;;;;;9.25;6.15;;;23.70;37.50;;;;;;5059656;28;20514;-72
2023/02/13 11:17:55;;;;;;;5.47;4.97;;;23.70;37.50;;;;;;5121272;27;20116;-63
2023/02/13 11:20:29;;;;;;;8.05;6.70;;;23.70;37.50;;;;;;5068809;28;20091;-68
2023/02/13 11:23:13;;;;;;;6.90;4.43;;;23.80;37.40;;;;;;5016795;28;20559;-69
2023/02/13 11:25:40;;;;;;;8.90;5.90;;;23.80;37.90;;;;;;5010921;28;20045;-73
2023/02/13 11:28:16;;;;;;;7.28;6.25;;;23.80;37.50;;;;;;5000688;28;20054;-69
2023/02/13 11:30:44;;;;;;;5.13;4.65;;;23.90;37.30;;;;;;5003185;28;20411;-65
2023/02/13 11:33:23;;;;;;;5.57;4.55;;;23.90;37.60;;;;;;5002826;28;20042;-65
2023/02/13 11:35:50;;;;;;;7.57;6.15;;;24.00;37.60;;;;;;5002948;28;20157;-66
2023/02/13 11:38:23;;;;;;;7.38;6.68;;;24.00;37.20;;;;;;5002494;28;20046;-60
2023/02/13 11:40:53;;;;;;;8.75;5.72;;;24.00;37.00;;;;;;4990527;28;20497;-63
2023/02/13 11:43:33;;;;;;;7.43;6.40;;;24.10;36.70;;;;;;4983113;28;20483;-62
2023/02/13 11:46:04;;;;;;;7.68;6.18;;;24.20;36.70;;;;;;4983507;28;20321;-59
2023/02/13 11:48:32;;;;;;;5.70;5.00;;;24.20;36.60;;;;;;4998552;28;20070;-55
2023/02/13 11:50:59;;;;;;;6.32;5.68;;;24.30;36.60;;;;;;5105493;28;20777;-57
2023/02/13 11:53:31;;;;;;;6.00;5.40;;;24.40;36.50;;;;;;5088059;28;20045;-54
2023/02/13 11:56:11;;;;;;;7.00;5.68;;;24.50;36.40;;;;;;5022333;28;20132;-57
2023/02/13 11:58:40;;;;;;;6.25;5.28;;;24.60;36.30;;;;;;5022225;28;20050;-59
2023/02/13 12:01:27;;;;;;;6.57;5.97;;;24.60;36.20;;;;;;5012672;28;20042;-58
2023/02/13 12:04:04;;;;;;;4.57;4.05;;;24.80;36.00;;;;;;5001425;28;20210;-58
2023/02/13 12:06:38;;;;;;;7.43;5.85;;;24.80;36.40;;;;;;4982923;28;20084;-56
2023/02/13 12:09:10;;;;;;;7.68;5.90;;;24.80;35.90;;;;;;4982757;28;20074;-58
2023/02/13 12:11:43;;;;;;;6.32;5.72;;;24.90;35.80;;;;;;4982727;28;20100;-58
2023/02/13 12:14:14;;;;;;;7.43;5.82;;;25.00;35.70;;;;;;4982272;28;20107;-56
2023/02/13 12:16:46;;;;;;;6.65;5.93;;;25.10;35.60;;;;;;4982687;28;20149;-60
2023/02/13 12:19:19;;;;;;;5.95;5.45;;;25.10;35.40;;;;;;4982866;28;20131;-57
2023/02/13 12:22:00;;;;;;;10.68;5.32;;;25.20;35.40;;;;;;5001684;28;20042;-60
2023/02/13 12:24:41;;;;;;;14.63;8.02;;;25.20;35.50;;;;;;5001230;28;20061;-59
2023/02/13 12:27:16;;;;;;;7.80;5.13;;;25.20;35.40;;;;;;4998584;28;20046;-59
2023/02/13 12:30:04;;;;;;;9.27;6.25;;;25.20;35.40;;;;;;4995069;28;20095;-59
2023/02/13 12:32:43;;;;;;;9.48;6.47;;;25.30;35.40;;;;;;5001249;28;20046;-59
2023/02/13 12:35:38;;;;;;;13.55;7.53;;;25.20;35.40;;;;;;5001340;28;20135;-59
2023/02/13 12:38:15;;;;;;;10.35;6.78;;;25.30;35.30;;;;;;4998697;28;20098;-59
2023/02/13 12:41:18;;;;;;;14.88;6.68;;;25.20;35.40;;;;;;5014162;28;20525;-59
2023/02/13 12:44:22;;;;;;;10.30;6.60;;;25.30;36.10;;;;;;4991062;28;20060;-60
2023/02/13 12:46:57;;;;;;;9.45;6.78;;;25.20;35.40;;;;;;5001585;28;20121;-58
2023/02/13 12:49:58;;;;;;;13.10;7.07;;;25.20;35.50;;;;;;4989570;28;20060;-57
2023/02/13 12:52:39;;;;;;;11.55;6.28;;;25.20;35.40;;;;;;4981223;28;20053;-58
2023/02/13 12:56:12;;;;;;;16.13;11.27;;;25.20;34.90;;;;;;5121105;27;20406;-75
2023/02/13 12:58:57;;;;;;;16.80;13.23;;;25.20;33.30;;;;;;5119903;27;20138;-73
2023/02/13 13:01:47;;;;;;;16.52;11.77;;;25.00;32.10;;;;;;5115193;27;20075;-66
2023/02/13 13:04:23;;;;;;;12.68;11.20;;;25.00;31.70;;;;;;5119350;27;20048;-63
2023/02/13 13:07:07;;;;;;;16.52;12.48;;;24.90;31.40;;;;;;5114604;27;20112;-65
2023/02/13 13:09:58;;;;;;;16.80;11.02;;;24.80;31.10;;;;;;5120623;27;20482;-63
2023/02/13 13:12:39;;;;;;;14.57;11.20;;;24.80;31.00;;;;;;5113413;28;20044;-66
2023/02/13 13:15:14;;;;;;;16.42;11.95;;;24.60;30.90;;;;;;5120804;27;20811;-68
2023/02/13 13:17:57;;;;;;;17.48;12.35;;;24.60;30.90;;;;;;5121318;27;20108;-63
2023/02/13 13:20:43;;;;;;;14.52;11.98;;;24.50;30.80;;;;;;5119993;27;20114;-64
2023/02/13 13:23:15;;;;;;;14.25;12.75;;;24.40;30.80;;;;;;5119776;27;20039;-64
2023/02/13 13:25:50;;;;;;;16.38;12.75;;;24.30;30.70;;;;;;5121565;27;20051;-67
2023/02/13 13:28:22;;;;;;;15.40;12.45;;;24.30;30.90;;;;;;5119232;27;20144;-64
2023/02/13 13:30:50;;;;;;;13.43;11.18;;;24.30;30.90;;;;;;5117303;27;20454;-66
2023/02/13 13:33:18;;;;;;;14.82;10.65;;;24.20;30.80;;;;;;5114420;27;20039;-65
2023/02/13 13:35:57;;;;;;;13.60;11.70;;;24.20;30.70;;;;;;5120495;27;20418;-61
2023/02/13 13:38:37;;;;;;;16.52;12.27;;;24.20;30.70;;;;;;5117522;27;20122;-66
2023/02/13 13:41:12;;;;;;;14.88;11.88;;;24.10;30.70;;;;;;5121390;27;20043;-63
2023/02/13 13:43:58;;;;;;;14.70;12.47;;;24.10;30.70;;;;;;5120206;28;20039;-51
2023/02/13 13:46:29;;;;;;;;;;;24.10;31.00;;;;;;5113277;27;20040;-52
2023/02/13 13:49:06;;;;;;;17.27;10.90;;;24.00;31.30;;;;;;5116207;27;19920;-51
2023/02/13 13:51:33;;;;;;;23.00;12.25;;;24.00;31.20;;;;;;5120827;27;20038;-60
2023/02/13 13:54:32;;;;;;;14.27;11.02;;;24.00;31.20;;;;;;5121141;28;20052;-60
2023/02/13 13:57:11;;;;;;;13.07;10.88;;;24.00;31.00;;;;;;5116883;27;20079;-64
2023/02/13 14:00:01;;;;;;;14.73;13.20;;;24.00;31.00;;;;;;5118251;28;20559;-65